createdAt,value
2017-06-17T00:00:18.083Z,934.05
2017-06-17T00:00:46.130Z,934.05
2017-06-17T00:01:14.297Z,934.03
2017-06-17T00:01:42.255Z,934.06
2017-06-17T00:02:10.535Z,934.06
2017-06-17T00:02:38.746Z,934.08
2017-06-17T00:03:06.920Z,934.13
2017-06-17T00:03:34.996Z,934.1
2017-06-17T00:04:03.081Z,934.09
2017-06-17T00:04:31.170Z,934.12
2017-06-17T00:04:59.356Z,934.12
2017-06-17T00:05:27.601Z,934.13
2017-06-17T00:05:55.813Z,934.15
2017-06-17T00:06:23.873Z,934.11
2017-06-17T00:06:51.852Z,934.13
2017-06-17T00:07:20.103Z,934.11
2017-06-17T00:07:48.043Z,934.09
2017-06-17T00:08:16.147Z,934.11
2017-06-17T00:08:44.050Z,934.13
2017-06-17T00:09:12.190Z,934.08
2017-06-17T00:09:40.275Z,934.08
2017-06-17T00:10:08.451Z,934.08
2017-06-17T00:10:36.628Z,934.08
2017-06-17T00:11:04.820Z,934.07
2017-06-17T00:11:32.852Z,934.08
2017-06-17T00:12:00.851Z,934.07
2017-06-17T00:12:29.189Z,934.06
2017-06-17T00:12:57.372Z,934.07
2017-06-17T00:13:25.507Z,934.05
2017-06-17T00:13:53.589Z,934.08
2017-06-17T00:14:21.671Z,934.07
2017-06-17T00:14:49.864Z,934.09
2017-06-17T00:15:17.918Z,934.09
2017-06-17T00:15:46.055Z,934.07
2017-06-17T00:16:14.202Z,934.04
2017-06-17T00:16:42.174Z,934.03
2017-06-17T00:17:10.348Z,934.04
2017-06-17T00:17:38.464Z,934.06
2017-06-17T00:18:06.685Z,934.03
2017-06-17T00:18:34.933Z,933.98
2017-06-17T00:19:03.014Z,934.02
2017-06-17T00:19:31.212Z,934
2017-06-17T00:19:59.320Z,933.99
2017-06-17T00:20:27.492Z,933.95
2017-06-17T00:20:55.546Z,933.95
2017-06-17T00:21:23.746Z,933.99
2017-06-17T00:21:51.852Z,934.01
2017-06-17T00:22:19.928Z,934
2017-06-17T00:22:48.294Z,933.97
2017-06-17T00:23:16.320Z,933.97
2017-06-17T00:23:44.225Z,933.94
2017-06-17T00:24:12.277Z,933.91
2017-06-17T00:24:40.365Z,933.94
2017-06-17T00:25:08.529Z,933.93
2017-06-17T00:25:36.682Z,933.92
2017-06-17T00:26:04.783Z,933.92
2017-06-17T00:26:32.972Z,933.92
2017-06-17T00:27:01.087Z,933.91
2017-06-17T00:27:29.328Z,933.94
2017-06-17T00:27:57.498Z,933.95
2017-06-17T00:28:25.573Z,933.94
2017-06-17T00:28:53.609Z,933.97
2017-06-17T00:29:21.774Z,933.93
2017-06-17T00:29:49.901Z,933.94
2017-06-17T00:30:17.869Z,933.92
2017-06-17T00:30:45.938Z,933.94
2017-06-17T00:31:14.022Z,933.95
2017-06-17T00:31:42.140Z,933.95
2017-06-17T00:32:10.305Z,933.98
2017-06-17T00:32:38.505Z,933.94
2017-06-17T00:33:06.603Z,933.96
2017-06-17T00:33:34.796Z,933.98
2017-06-17T00:34:02.743Z,933.98
2017-06-17T00:34:30.792Z,933.95
2017-06-17T00:34:58.830Z,933.9
2017-06-17T00:35:26.917Z,933.93
2017-06-17T00:35:55.004Z,933.9
2017-06-17T00:36:23.089Z,933.9
2017-06-17T00:36:51.298Z,933.9
2017-06-17T00:37:19.412Z,933.92
2017-06-17T00:37:47.536Z,933.93
2017-06-17T00:38:15.728Z,933.94
2017-06-17T00:38:43.889Z,933.93
2017-06-17T00:39:12.071Z,933.93
2017-06-17T00:39:40.167Z,933.91
2017-06-17T00:40:08.338Z,933.9
2017-06-17T00:40:36.523Z,933.89
2017-06-17T00:41:04.668Z,933.88
2017-06-17T00:41:32.892Z,933.91
2017-06-17T00:42:00.949Z,933.91
2017-06-17T00:42:29.161Z,933.92
2017-06-17T00:42:57.306Z,933.96
2017-06-17T00:43:25.478Z,933.94
2017-06-17T00:43:53.523Z,933.98
2017-06-17T00:44:21.693Z,933.97
2017-06-17T00:44:49.779Z,933.96
2017-06-17T00:45:17.737Z,933.97
2017-06-17T00:45:45.811Z,933.99
2017-06-17T00:46:14.054Z,933.97
2017-06-17T00:46:42.249Z,933.97
2017-06-17T00:47:10.285Z,933.96
2017-06-17T00:47:38.352Z,933.96
2017-06-17T00:48:06.367Z,933.96
2017-06-17T00:48:34.478Z,933.95
2017-06-17T00:49:02.585Z,933.94
2017-06-17T00:49:30.644Z,933.94
2017-06-17T00:49:58.781Z,933.91
2017-06-17T00:50:26.901Z,933.97
2017-06-17T00:50:54.997Z,933.97
2017-06-17T00:51:23.097Z,933.97
2017-06-17T00:51:51.192Z,933.94
2017-06-17T00:52:19.279Z,933.92
2017-06-17T00:52:47.504Z,933.96
2017-06-17T00:53:15.658Z,933.93
2017-06-17T00:53:43.713Z,933.93
2017-06-17T00:54:11.734Z,933.94
2017-06-17T00:54:39.832Z,933.94
2017-06-17T00:55:07.840Z,933.92
2017-06-17T00:55:35.945Z,933.93
2017-06-17T00:56:04.004Z,933.93
2017-06-17T00:56:32.184Z,933.94
2017-06-17T00:57:00.228Z,933.91
2017-06-17T00:57:28.216Z,933.94
2017-06-17T00:57:56.452Z,933.92
2017-06-17T00:58:24.417Z,933.92
2017-06-17T00:58:52.399Z,933.93
2017-06-17T00:59:20.496Z,933.9
2017-06-17T00:59:48.686Z,933.95
2017-06-17T01:00:16.725Z,933.93
2017-06-17T01:00:44.864Z,933.92
2017-06-17T01:01:12.906Z,933.9
2017-06-17T01:01:41.122Z,933.96
2017-06-17T01:02:09.299Z,933.95
2017-06-17T01:02:37.467Z,934
2017-06-17T01:03:05.589Z,933.99
2017-06-17T01:03:33.849Z,933.95
2017-06-17T01:04:01.908Z,933.98
2017-06-17T01:04:30.079Z,933.98
2017-06-17T01:04:58.042Z,933.94
2017-06-17T01:05:26.013Z,933.98
2017-06-17T01:05:54.115Z,933.95
2017-06-17T01:06:22.183Z,933.95
2017-06-17T01:06:50.092Z,933.95
2017-06-17T01:07:18.283Z,933.98
2017-06-17T01:07:46.517Z,933.95
2017-06-17T01:08:14.823Z,934.01
2017-06-17T01:08:42.923Z,934
2017-06-17T01:09:11.077Z,933.94
2017-06-17T01:09:38.956Z,933.99
2017-06-17T01:10:07.118Z,934.02
2017-06-17T01:10:35.326Z,933.99
2017-06-17T01:11:03.536Z,934.01
2017-06-17T01:11:31.705Z,934.01
2017-06-17T01:11:59.808Z,933.98
2017-06-17T01:12:27.956Z,934.01
2017-06-17T01:12:56.012Z,933.98
2017-06-17T01:13:24.109Z,933.97
2017-06-17T01:13:52.306Z,933.96
2017-06-17T01:14:20.346Z,934
2017-06-17T01:14:48.520Z,933.97
2017-06-17T01:15:16.664Z,933.94
2017-06-17T01:15:44.693Z,933.95
2017-06-17T01:16:12.769Z,933.93
2017-06-17T01:16:40.765Z,933.94
2017-06-17T01:17:08.862Z,933.91
2017-06-17T01:17:37.035Z,933.93
2017-06-17T01:18:05.326Z,933.92
2017-06-17T01:18:33.367Z,933.93
2017-06-17T01:19:02.260Z,933.91
2017-06-17T01:19:30.235Z,933.91
2017-06-17T01:19:58.281Z,933.92
2017-06-17T01:20:26.464Z,933.95
2017-06-17T01:20:54.453Z,933.9
2017-06-17T01:21:22.551Z,933.9
2017-06-17T01:21:50.717Z,933.91
2017-06-17T01:22:18.914Z,933.92
2017-06-17T01:22:47.124Z,933.92
2017-06-17T01:23:15.293Z,933.9
2017-06-17T01:23:43.512Z,933.92
2017-06-17T01:24:11.640Z,933.92
2017-06-17T01:24:39.637Z,933.92
2017-06-17T01:25:07.797Z,933.94
2017-06-17T01:25:35.986Z,933.91
2017-06-17T01:26:04.090Z,933.92
2017-06-17T01:26:32.300Z,933.93
2017-06-17T01:27:00.357Z,933.93
2017-06-17T01:27:28.373Z,933.96
2017-06-17T01:27:56.533Z,933.97
2017-06-17T01:28:24.775Z,933.99
2017-06-17T01:28:52.836Z,933.96
2017-06-17T01:29:20.912Z,933.96
2017-06-17T01:29:48.881Z,933.98
2017-06-17T01:30:16.751Z,933.97
2017-06-17T01:30:44.788Z,933.94
2017-06-17T01:31:12.861Z,933.95
2017-06-17T01:31:41.026Z,933.98
2017-06-17T01:32:09.028Z,933.99
2017-06-17T01:32:37.208Z,933.96
2017-06-17T01:33:05.300Z,933.96
2017-06-17T01:33:33.585Z,933.97
2017-06-17T01:34:01.775Z,933.95
2017-06-17T01:34:29.968Z,933.96
2017-06-17T01:34:58.141Z,934
2017-06-17T01:35:32.597Z,933.99
2017-06-17T01:36:00.737Z,934
2017-06-17T01:36:28.935Z,934.01
2017-06-17T01:36:57.022Z,934.02
2017-06-17T01:37:25.053Z,934.04
2017-06-17T01:37:53.169Z,934
2017-06-17T01:38:21.405Z,934.02
2017-06-17T01:38:49.598Z,933.98
2017-06-17T01:39:17.793Z,934.01
2017-06-17T01:39:45.832Z,934.02
2017-06-17T01:40:14.024Z,934.05
2017-06-17T01:40:42.064Z,934.03
2017-06-17T01:41:10.162Z,934.02
2017-06-17T01:41:38.363Z,934.04
2017-06-17T01:42:06.477Z,934.06
2017-06-17T01:42:34.706Z,934.05
2017-06-17T01:43:02.816Z,934.04
2017-06-17T01:43:31.201Z,934.09
2017-06-17T01:43:59.411Z,934.06
2017-06-17T01:44:27.521Z,934.06
2017-06-17T01:44:55.608Z,934.09
2017-06-17T01:45:23.828Z,934.09
2017-06-17T01:45:52.003Z,934.08
2017-06-17T01:46:20.101Z,934.1
2017-06-17T01:46:48.004Z,934.07
2017-06-17T01:47:16.206Z,934.1
2017-06-17T01:47:44.283Z,934.09
2017-06-17T01:48:12.307Z,934.08
2017-06-17T01:48:40.580Z,934.11
2017-06-17T01:49:08.779Z,934.12
2017-06-17T01:49:36.774Z,934.1
2017-06-17T01:50:04.636Z,934.12
2017-06-17T01:50:32.870Z,934.13
2017-06-17T01:51:00.937Z,934.15
2017-06-17T01:51:29.130Z,934.12
2017-06-17T01:51:57.149Z,934.2
2017-06-17T01:52:25.319Z,934.18
2017-06-17T01:52:53.440Z,934.17
2017-06-17T01:53:21.320Z,934.16
2017-06-17T01:53:49.531Z,934.2
2017-06-17T01:54:17.647Z,934.2
2017-06-17T01:54:45.836Z,934.18
2017-06-17T01:55:13.876Z,934.2
2017-06-17T01:55:42.063Z,934.18
2017-06-17T01:56:10.194Z,934.18
2017-06-17T01:56:38.326Z,934.21
2017-06-17T01:57:06.546Z,934.23
2017-06-17T01:57:34.662Z,934.22
2017-06-17T01:58:02.903Z,934.23
2017-06-17T01:58:31.255Z,934.19
2017-06-17T01:58:59.342Z,934.24
2017-06-17T01:59:27.437Z,934.21
2017-06-17T01:59:55.668Z,934.22
2017-06-17T02:00:23.795Z,934.2
2017-06-17T02:00:52.018Z,934.23
2017-06-17T02:01:20.048Z,934.24
2017-06-17T02:01:48.143Z,934.24
2017-06-17T02:02:16.366Z,934.21
2017-06-17T02:02:44.481Z,934.23
2017-06-17T02:03:12.624Z,934.22
2017-06-17T02:03:40.869Z,934.24
2017-06-17T02:04:09.067Z,934.18
2017-06-17T02:04:37.162Z,934.21
2017-06-17T02:05:05.384Z,934.19
2017-06-17T02:05:33.579Z,934.19
2017-06-17T02:06:01.820Z,934.17
2017-06-17T02:06:30.052Z,934.17
2017-06-17T02:06:58.086Z,934.16
2017-06-17T02:07:26.300Z,934.16
2017-06-17T02:07:54.423Z,934.16
2017-06-17T02:08:22.346Z,934.15
2017-06-17T02:08:50.482Z,934.13
2017-06-17T02:09:18.724Z,934.09
2017-06-17T02:09:46.826Z,934.08
2017-06-17T02:10:14.979Z,934.12
2017-06-17T02:10:43.191Z,934.12
2017-06-17T02:11:11.115Z,934.09
2017-06-17T02:11:39.237Z,934.08
2017-06-17T02:12:07.456Z,934.08
2017-06-17T02:12:35.584Z,934.09
2017-06-17T02:13:03.738Z,934.09
2017-06-17T02:13:31.960Z,934.08
2017-06-17T02:14:00.286Z,934.11
2017-06-17T02:14:28.540Z,934.12
2017-06-17T02:14:56.560Z,934.11
2017-06-17T02:15:24.843Z,934.1
2017-06-17T02:15:52.762Z,934.11
2017-06-17T02:16:20.965Z,934.08
2017-06-17T02:16:49.284Z,934.11
2017-06-17T02:17:17.582Z,934.13
2017-06-17T02:17:45.743Z,934.13
2017-06-17T02:18:14.000Z,934.13
2017-06-17T02:18:41.952Z,934.12
2017-06-17T02:19:10.114Z,934.13
2017-06-17T02:19:38.131Z,934.13
2017-06-17T02:20:06.334Z,934.13
2017-06-17T02:20:34.552Z,934.19
2017-06-17T02:21:02.729Z,934.13
2017-06-17T02:21:30.909Z,934.12
2017-06-17T02:21:59.168Z,934.14
2017-06-17T02:22:27.405Z,934.11
2017-06-17T02:22:55.523Z,934.12
2017-06-17T02:23:23.703Z,934.14
2017-06-17T02:23:52.082Z,934.12
2017-06-17T02:24:20.280Z,934.15
2017-06-17T02:24:48.457Z,934.16
2017-06-17T02:25:16.688Z,934.15
2017-06-17T02:25:44.896Z,934.16
2017-06-17T02:26:13.116Z,934.12
2017-06-17T02:26:41.393Z,934.13
2017-06-17T02:27:09.437Z,934.16
2017-06-17T02:27:37.636Z,934.12
2017-06-17T02:28:05.753Z,934.11
2017-06-17T02:28:33.870Z,934.12
2017-06-17T02:29:01.998Z,934.14
2017-06-17T02:29:30.198Z,934.11
2017-06-17T02:29:58.429Z,934.1
2017-06-17T02:30:26.632Z,934.12
2017-06-17T02:30:54.651Z,934.12
2017-06-17T02:31:22.807Z,934.1
2017-06-17T02:31:51.022Z,934.11
2017-06-17T02:32:19.075Z,934.05
2017-06-17T02:32:47.272Z,934.05
2017-06-17T02:33:15.481Z,934.09
2017-06-17T02:33:43.631Z,934.09
2017-06-17T02:34:11.732Z,934.07
2017-06-17T02:34:39.717Z,934.04
2017-06-17T02:35:07.887Z,934.1
2017-06-17T02:35:35.981Z,934.08
2017-06-17T02:36:04.231Z,934.06
2017-06-17T02:36:32.222Z,934.08
2017-06-17T02:37:00.316Z,934.09
2017-06-17T02:37:28.550Z,934.05
2017-06-17T02:37:56.650Z,934.06
2017-06-17T02:38:24.846Z,934.04
2017-06-17T02:38:53.069Z,934.04
2017-06-17T02:39:21.313Z,934.05
2017-06-17T02:39:49.216Z,934.06
2017-06-17T02:40:17.347Z,934.06
2017-06-17T02:40:45.386Z,934.04
2017-06-17T02:41:13.542Z,934.02
2017-06-17T02:41:41.705Z,934.03
2017-06-17T02:42:09.894Z,934.03
2017-06-17T02:42:37.998Z,934.03
2017-06-17T02:43:06.165Z,934.04
2017-06-17T02:43:34.369Z,934.06
2017-06-17T02:44:02.660Z,934.06
2017-06-17T02:44:30.746Z,934.03
2017-06-17T02:44:58.770Z,934.06
2017-06-17T02:45:26.897Z,934.03
2017-06-17T02:45:54.892Z,934.05
2017-06-17T02:46:23.010Z,934.04
2017-06-17T02:46:51.238Z,934.06
2017-06-17T02:47:19.437Z,934.04
2017-06-17T02:47:47.525Z,934.03
2017-06-17T02:48:15.637Z,934.05
2017-06-17T02:48:43.889Z,934.05
2017-06-17T02:49:12.213Z,934.02
2017-06-17T02:49:40.372Z,934
2017-06-17T02:50:08.567Z,934
2017-06-17T02:50:36.770Z,933.95
2017-06-17T02:51:04.976Z,933.95
2017-06-17T02:51:32.859Z,933.98
2017-06-17T02:52:01.120Z,933.96
2017-06-17T02:52:29.388Z,933.99
2017-06-17T02:52:57.563Z,933.97
2017-06-17T02:53:25.570Z,933.96
2017-06-17T02:53:53.613Z,933.97
2017-06-17T02:54:21.763Z,933.97
2017-06-17T02:54:49.977Z,933.99
2017-06-17T02:55:18.235Z,933.99
2017-06-17T02:55:46.446Z,934.01
2017-06-17T02:56:14.636Z,934
2017-06-17T02:56:42.776Z,933.96
2017-06-17T02:57:10.899Z,933.99
2017-06-17T02:57:39.050Z,933.96
2017-06-17T02:58:07.138Z,934
2017-06-17T02:58:35.266Z,933.97
2017-06-17T02:59:03.420Z,933.95
2017-06-17T02:59:31.779Z,933.97
2017-06-17T02:59:59.983Z,933.95
2017-06-17T03:00:28.100Z,933.96
2017-06-17T03:00:56.207Z,933.94
2017-06-17T03:01:24.438Z,933.95
2017-06-17T03:01:52.452Z,933.92
2017-06-17T03:02:20.459Z,933.96
2017-06-17T03:02:48.651Z,933.95
2017-06-17T03:03:16.737Z,933.94
2017-06-17T03:03:44.803Z,933.95
2017-06-17T03:04:13.127Z,933.93
2017-06-17T03:04:41.166Z,933.95
2017-06-17T03:05:09.315Z,933.96
2017-06-17T03:05:37.543Z,933.95
2017-06-17T03:06:05.574Z,933.95
2017-06-17T03:06:33.799Z,933.96
2017-06-17T03:07:02.029Z,933.97
2017-06-17T03:07:30.209Z,933.96
2017-06-17T03:07:58.183Z,933.96
2017-06-17T03:08:26.303Z,933.97
2017-06-17T03:08:54.327Z,933.95
2017-06-17T03:09:22.708Z,933.97
2017-06-17T03:09:50.753Z,933.99
2017-06-17T03:10:18.868Z,933.97
2017-06-17T03:10:47.093Z,933.95
2017-06-17T03:11:14.901Z,933.95
2017-06-17T03:11:42.905Z,933.97
2017-06-17T03:12:10.928Z,933.95
2017-06-17T03:12:38.948Z,933.93
2017-06-17T03:13:07.089Z,933.92
2017-06-17T03:13:35.169Z,933.89
2017-06-17T03:14:03.273Z,933.89
2017-06-17T03:14:31.471Z,933.86
2017-06-17T03:14:59.583Z,933.87
2017-06-17T03:15:27.590Z,933.84
2017-06-17T03:15:55.792Z,933.87
2017-06-17T03:16:23.890Z,933.87
2017-06-17T03:16:52.160Z,933.83
2017-06-17T03:17:20.227Z,933.83
2017-06-17T03:17:48.262Z,933.84
2017-06-17T03:18:16.474Z,933.82
2017-06-17T03:18:44.602Z,933.81
2017-06-17T03:19:12.658Z,933.77
2017-06-17T03:19:40.920Z,933.8
2017-06-17T03:20:09.125Z,933.78
2017-06-17T03:20:37.374Z,933.76
2017-06-17T03:21:05.493Z,933.75
2017-06-17T03:21:33.597Z,933.74
2017-06-17T03:22:01.793Z,933.74
2017-06-17T03:22:29.819Z,933.75
2017-06-17T03:22:57.993Z,933.75
2017-06-17T03:23:25.985Z,933.78
2017-06-17T03:23:54.190Z,933.79
2017-06-17T03:24:22.317Z,933.77
2017-06-17T03:24:50.507Z,933.76
2017-06-17T03:25:18.766Z,933.77
2017-06-17T03:25:46.964Z,933.75
2017-06-17T03:26:15.119Z,933.74
2017-06-17T03:26:43.241Z,933.75
2017-06-17T03:27:11.368Z,933.74
2017-06-17T03:27:39.591Z,933.74
2017-06-17T03:28:07.694Z,933.75
2017-06-17T03:28:35.647Z,933.77
2017-06-17T03:29:03.848Z,933.75
2017-06-17T03:29:32.199Z,933.77
2017-06-17T03:30:00.322Z,933.74
2017-06-17T03:30:28.520Z,933.75
2017-06-17T03:30:56.680Z,933.72
2017-06-17T03:31:24.784Z,933.76
2017-06-17T03:31:53.011Z,933.76
2017-06-17T03:32:21.173Z,933.75
2017-06-17T03:32:49.095Z,933.77
2017-06-17T03:33:17.218Z,933.73
2017-06-17T03:33:45.303Z,933.73
2017-06-17T03:34:13.507Z,933.73
2017-06-17T03:34:41.755Z,933.71
2017-06-17T03:35:09.861Z,933.73
2017-06-17T03:35:37.971Z,933.74
2017-06-17T03:36:06.132Z,933.68
2017-06-17T03:36:34.250Z,933.69
2017-06-17T03:37:02.387Z,933.72
2017-06-17T03:37:30.581Z,933.75
2017-06-17T03:37:58.720Z,933.72
2017-06-17T03:38:26.926Z,933.69
2017-06-17T03:38:55.051Z,933.72
2017-06-17T03:39:23.166Z,933.73
2017-06-17T03:39:51.311Z,933.69
2017-06-17T03:40:19.342Z,933.71
2017-06-17T03:40:47.427Z,933.68
2017-06-17T03:41:15.537Z,933.72
2017-06-17T03:41:43.748Z,933.68
2017-06-17T03:42:11.859Z,933.73
2017-06-17T03:42:40.041Z,933.67
2017-06-17T03:43:08.117Z,933.66
2017-06-17T03:43:36.368Z,933.66
2017-06-17T03:44:04.581Z,933.64
2017-06-17T03:44:32.732Z,933.64
2017-06-17T03:45:01.131Z,933.61
2017-06-17T03:45:29.372Z,933.6
2017-06-17T03:45:57.627Z,933.6
2017-06-17T03:46:25.856Z,933.62
2017-06-17T03:46:53.995Z,933.64
2017-06-17T03:47:22.101Z,933.62
2017-06-17T03:47:50.207Z,933.63
2017-06-17T03:48:18.308Z,933.65
2017-06-17T03:48:46.519Z,933.68
2017-06-17T03:49:14.738Z,933.71
2017-06-17T03:49:42.930Z,933.71
2017-06-17T03:50:11.349Z,933.71
2017-06-17T03:50:39.348Z,933.72
2017-06-17T03:51:07.456Z,933.75
2017-06-17T03:51:35.533Z,933.75
2017-06-17T03:52:03.659Z,933.75
2017-06-17T03:52:31.898Z,933.75
2017-06-17T03:53:00.136Z,933.74
2017-06-17T03:53:28.364Z,933.73
2017-06-17T03:53:56.501Z,933.75
2017-06-17T03:54:24.739Z,933.74
2017-06-17T03:54:53.023Z,933.69
2017-06-17T03:55:21.128Z,933.7
2017-06-17T03:55:49.335Z,933.7
2017-06-17T03:56:17.528Z,933.67
2017-06-17T03:56:45.780Z,933.64
2017-06-17T03:57:13.911Z,933.67
2017-06-17T03:57:42.026Z,933.65
2017-06-17T03:58:10.055Z,933.65
2017-06-17T03:58:38.259Z,933.66
2017-06-17T03:59:06.385Z,933.7
2017-06-17T03:59:34.588Z,933.68
2017-06-17T04:00:02.840Z,933.69
2017-06-17T04:00:31.035Z,933.7
2017-06-17T04:00:59.202Z,933.71
2017-06-17T04:01:27.486Z,933.68
2017-06-17T04:01:55.725Z,933.71
2017-06-17T04:02:23.909Z,933.71
2017-06-17T04:02:51.920Z,933.67
2017-06-17T04:03:20.016Z,933.7
2017-06-17T04:03:48.215Z,933.71
2017-06-17T04:04:16.332Z,933.69
2017-06-17T04:04:44.423Z,933.71
2017-06-17T04:05:12.638Z,933.69
2017-06-17T04:05:40.678Z,933.65
2017-06-17T04:06:08.776Z,933.69
2017-06-17T04:06:36.916Z,933.68
2017-06-17T04:07:05.121Z,933.7
2017-06-17T04:07:33.292Z,933.68
2017-06-17T04:08:01.495Z,933.66
2017-06-17T04:08:29.715Z,933.65
2017-06-17T04:08:57.933Z,933.64
2017-06-17T04:09:26.173Z,933.64
2017-06-17T04:09:54.304Z,933.67
2017-06-17T04:10:22.544Z,933.66
2017-06-17T04:10:50.759Z,933.65
2017-06-17T04:11:18.711Z,933.68
2017-06-17T04:11:46.700Z,933.66
2017-06-17T04:12:14.912Z,933.66
2017-06-17T04:12:42.943Z,933.67
2017-06-17T04:13:11.160Z,933.67
2017-06-17T04:13:39.289Z,933.73
2017-06-17T04:14:07.316Z,933.74
2017-06-17T04:14:35.542Z,933.72
2017-06-17T04:15:03.857Z,933.72
2017-06-17T04:15:31.974Z,933.71
2017-06-17T04:16:00.244Z,933.73
2017-06-17T04:16:28.244Z,933.71
2017-06-17T04:16:56.291Z,933.71
2017-06-17T04:17:24.492Z,933.7
2017-06-17T04:17:52.698Z,933.66
2017-06-17T04:18:20.729Z,933.69
2017-06-17T04:18:48.871Z,933.69
2017-06-17T04:19:17.092Z,933.68
2017-06-17T04:19:45.370Z,933.71
2017-06-17T04:20:13.767Z,933.71
2017-06-17T04:20:41.743Z,933.7
2017-06-17T04:21:09.960Z,933.7
2017-06-17T04:21:38.197Z,933.68
2017-06-17T04:22:06.346Z,933.65
2017-06-17T04:22:34.362Z,933.68
2017-06-17T04:23:02.297Z,933.66
2017-06-17T04:23:30.456Z,933.64
2017-06-17T04:23:58.695Z,933.65
2017-06-17T04:24:26.940Z,933.64
2017-06-17T04:24:55.150Z,933.66
2017-06-17T04:25:23.330Z,933.65
2017-06-17T04:25:51.568Z,933.66
2017-06-17T04:26:19.800Z,933.65
2017-06-17T04:26:48.027Z,933.64
2017-06-17T04:27:16.050Z,933.61
2017-06-17T04:27:44.207Z,933.61
2017-06-17T04:28:12.326Z,933.58
2017-06-17T04:28:40.698Z,933.56
2017-06-17T04:29:08.846Z,933.58
2017-06-17T04:29:37.019Z,933.56
2017-06-17T04:30:05.294Z,933.58
2017-06-17T04:30:33.577Z,933.56
2017-06-17T04:31:01.743Z,933.58
2017-06-17T04:31:29.955Z,933.56
2017-06-17T04:31:58.218Z,933.51
2017-06-17T04:32:26.442Z,933.57
2017-06-17T04:32:54.409Z,933.51
2017-06-17T04:33:22.409Z,933.55
2017-06-17T04:33:50.508Z,933.52
2017-06-17T04:34:18.458Z,933.56
2017-06-17T04:34:46.523Z,933.55
2017-06-17T04:35:14.645Z,933.54
2017-06-17T04:35:43.030Z,933.54
2017-06-17T04:36:11.162Z,933.57
2017-06-17T04:36:39.365Z,933.56
2017-06-17T04:37:07.588Z,933.5
2017-06-17T04:37:35.750Z,933.53
2017-06-17T04:38:03.834Z,933.53
2017-06-17T04:38:31.969Z,933.54
2017-06-17T04:39:00.197Z,933.52
2017-06-17T04:39:28.369Z,933.56
2017-06-17T04:39:56.415Z,933.54
2017-06-17T04:40:24.778Z,933.55
2017-06-17T04:40:52.623Z,933.53
2017-06-17T04:41:20.689Z,933.52
2017-06-17T04:41:48.866Z,933.54
2017-06-17T04:42:17.113Z,933.5
2017-06-17T04:42:45.244Z,933.53
2017-06-17T04:43:13.349Z,933.53
2017-06-17T04:43:41.599Z,933.49
2017-06-17T04:44:09.817Z,933.52
2017-06-17T04:44:37.881Z,933.52
2017-06-17T04:45:06.071Z,933.53
2017-06-17T04:45:34.388Z,933.5
2017-06-17T04:46:02.485Z,933.56
2017-06-17T04:46:30.497Z,933.55
2017-06-17T04:46:58.741Z,933.48
2017-06-17T04:47:26.836Z,933.48
2017-06-17T04:47:54.933Z,933.5
2017-06-17T04:48:22.956Z,933.5
2017-06-17T04:48:51.198Z,933.49
2017-06-17T04:49:19.384Z,933.51
2017-06-17T04:49:47.612Z,933.47
2017-06-17T04:50:15.870Z,933.46
2017-06-17T04:50:44.241Z,933.48
2017-06-17T04:51:12.463Z,933.45
2017-06-17T04:51:40.417Z,933.43
2017-06-17T04:52:08.521Z,933.46
2017-06-17T04:52:36.650Z,933.49
2017-06-17T04:53:04.798Z,933.5
2017-06-17T04:53:33.007Z,933.5
2017-06-17T04:54:01.104Z,933.48
2017-06-17T04:54:29.331Z,933.48
2017-06-17T04:54:57.409Z,933.47
2017-06-17T04:55:25.553Z,933.49
2017-06-17T04:55:53.650Z,933.44
2017-06-17T04:56:21.887Z,933.45
2017-06-17T04:56:50.016Z,933.42
2017-06-17T04:57:18.254Z,933.44
2017-06-17T04:57:46.402Z,933.49
2017-06-17T04:58:14.605Z,933.41
2017-06-17T04:58:42.740Z,933.37
2017-06-17T04:59:10.862Z,933.4
2017-06-17T04:59:38.881Z,933.38
2017-06-17T05:00:07.072Z,933.38
2017-06-17T05:00:35.208Z,933.36
2017-06-17T05:01:03.550Z,933.37
2017-06-17T05:01:31.655Z,933.39
2017-06-17T05:01:59.877Z,933.37
2017-06-17T05:02:27.990Z,933.37
2017-06-17T05:02:56.189Z,933.36
2017-06-17T05:03:24.318Z,933.31
2017-06-17T05:03:52.463Z,933.34
2017-06-17T05:04:20.492Z,933.34
2017-06-17T05:04:48.704Z,933.33
2017-06-17T05:05:16.882Z,933.35
2017-06-17T05:05:45.129Z,933.32
2017-06-17T05:06:13.326Z,933.35
2017-06-17T05:06:41.511Z,933.35
2017-06-17T05:07:09.706Z,933.39
2017-06-17T05:07:37.873Z,933.33
2017-06-17T05:08:06.002Z,933.36
2017-06-17T05:08:34.045Z,933.34
2017-06-17T05:09:02.265Z,933.32
2017-06-17T05:09:30.424Z,933.38
2017-06-17T05:09:58.419Z,933.37
2017-06-17T05:10:26.663Z,933.34
2017-06-17T05:10:54.845Z,933.36
2017-06-17T05:11:23.084Z,933.36
2017-06-17T05:11:51.233Z,933.34
2017-06-17T05:12:19.291Z,933.32
2017-06-17T05:12:47.285Z,933.34
2017-06-17T05:13:15.379Z,933.33
2017-06-17T05:13:43.504Z,933.29
2017-06-17T05:14:11.645Z,933.28
2017-06-17T05:14:39.765Z,933.29
2017-06-17T05:15:07.839Z,933.29
2017-06-17T05:15:35.945Z,933.29
2017-06-17T05:16:04.313Z,933.29
2017-06-17T05:16:32.530Z,933.29
2017-06-17T05:17:00.740Z,933.24
2017-06-17T05:17:28.832Z,933.24
2017-06-17T05:17:56.905Z,933.28
2017-06-17T05:18:25.121Z,933.26
2017-06-17T05:18:53.305Z,933.23
2017-06-17T05:19:21.331Z,933.19
2017-06-17T05:19:49.432Z,933.19
2017-06-17T05:20:17.509Z,933.22
2017-06-17T05:20:45.621Z,933.2
2017-06-17T05:21:13.966Z,933.25
2017-06-17T05:21:42.114Z,933.25
2017-06-17T05:22:10.132Z,933.22
2017-06-17T05:22:38.351Z,933.2
2017-06-17T05:23:06.432Z,933.2
2017-06-17T05:23:34.615Z,933.2
2017-06-17T05:24:02.853Z,933.17
2017-06-17T05:24:31.004Z,933.18
2017-06-17T05:24:59.197Z,933.19
2017-06-17T05:25:27.331Z,933.17
2017-06-17T05:25:55.607Z,933.17
2017-06-17T05:26:23.785Z,933.16
2017-06-17T05:26:51.689Z,933.14
2017-06-17T05:27:19.802Z,933.14
2017-06-17T05:27:48.013Z,933.15
2017-06-17T05:28:16.099Z,933.14
2017-06-17T05:28:44.170Z,933.14
2017-06-17T05:29:12.416Z,933.17
2017-06-17T05:29:40.606Z,933.12
2017-06-17T05:30:08.775Z,933.14
2017-06-17T05:30:36.846Z,933.13
2017-06-17T05:31:04.943Z,933.13
2017-06-17T05:31:33.138Z,933.12
2017-06-17T05:32:01.358Z,933.1
2017-06-17T05:32:29.495Z,933.11
2017-06-17T05:32:57.684Z,933.08
2017-06-17T05:33:25.693Z,933.07
2017-06-17T05:33:53.952Z,933.09
2017-06-17T05:34:21.911Z,933.05
2017-06-17T05:34:50.158Z,933.06
2017-06-17T05:35:18.325Z,933.09
2017-06-17T05:35:46.374Z,933.07
2017-06-17T05:36:14.752Z,933.07
2017-06-17T05:36:42.990Z,933.08
2017-06-17T05:37:10.993Z,933.08
2017-06-17T05:37:39.015Z,933.1
2017-06-17T05:38:07.146Z,933.1
2017-06-17T05:38:35.214Z,933.11
2017-06-17T05:39:03.223Z,933.07
2017-06-17T05:39:31.048Z,933.07
2017-06-17T05:39:59.189Z,933.11
2017-06-17T05:40:27.387Z,933.05
2017-06-17T05:40:55.592Z,933.08
2017-06-17T05:41:23.742Z,933.09
2017-06-17T05:41:51.971Z,933.12
2017-06-17T05:42:20.005Z,933.13
2017-06-17T05:42:48.041Z,933.11
2017-06-17T05:43:16.139Z,933.14
2017-06-17T05:43:44.281Z,933.12
2017-06-17T05:44:12.413Z,933.13
2017-06-17T05:44:40.403Z,933.12
2017-06-17T05:45:08.570Z,933.12
2017-06-17T05:45:36.696Z,933.14
2017-06-17T05:46:04.927Z,933.12
2017-06-17T05:46:33.149Z,933.17
2017-06-17T05:47:01.267Z,933.12
2017-06-17T05:47:29.310Z,933.13
2017-06-17T05:47:57.374Z,933.09
2017-06-17T05:48:25.495Z,933.07
2017-06-17T05:48:53.505Z,933.08
2017-06-17T05:49:21.733Z,933.08
2017-06-17T05:49:49.897Z,933.1
2017-06-17T05:50:17.952Z,933.1
2017-06-17T05:50:45.988Z,933.07
2017-06-17T05:51:14.349Z,933.08
2017-06-17T05:51:42.552Z,933.1
2017-06-17T05:52:10.669Z,933.11
2017-06-17T05:52:38.770Z,933.12